Flensburg, Minnesota
Current Conditions -  °F | °C
As of 7:18 AM on Friday 24 Oct 2014 (Local Time) from KLXL Reporting Station
Clear Clear  
Wind Chill: 42°   Ceiling: Unl
Heat Index: 45°   Visibility: 10mi
Dew Point: 37°   Wind: 5mph
Humidity: 76%   Direction: 130°SE
Pressure: 29.85"   Gusts: NA
Location:  45.96°N, 94.54°W
Report Text: KLXL 241218Z AUTO 13004KT 10SM CLR 07/03 A2985 RMK AO2
Loading
Personal Weather Stations






























Interactive Weather Map
Tropical Storm Tracking
New forecast layout! Learn more

10-Day Weather Forecast

Advertisements
Track Severe Weather on mobile